Time;durP1;ratioP1;P1;durP2;ratioP2;P2;SDS_P1;SDS_P2;PMS_P1;PMS_P2;Temp;Humidity;BMP_temperature;BMP_pressure;BME280_temperature;BME280_humidity;BME280_pressure;Samples;Min_cycle;Max_cycle;Signal;HPM_P1;HPM_P2
2022/01/11 00:00:43;;;;;;;13.75;6.50;;;;;;;;;;4964457;29;20019;-84
2022/01/11 00:03:09;;;;;;;14.88;6.68;;;;;;;;;;4963289;28;20043;-84
2022/01/11 00:05:44;;;;;;;15.82;6.07;;;;;;;;;;4962413;29;20031;-83
2022/01/11 00:08:11;;;;;;;16.23;7.03;;;;;;;;;;4977473;29;20019;-83
2022/01/11 00:10:49;;;;;;;12.88;6.70;;;;;;;;;;4974957;29;20026;-83
2022/01/11 00:13:15;;;;;;;14.10;6.20;;;;;;;;;;4974073;28;20027;-84
2022/01/11 00:15:40;;;;;;;16.65;6.78;;;;;;;;;;4973162;29;20019;-83
2022/01/11 00:18:06;;;;;;;12.02;6.53;;;;;;;;;;4977387;29;20027;-83
2022/01/11 00:20:36;;;;;;;17.23;6.53;;;;;;;;;;4980146;29;20027;-84
2022/01/11 00:25:42;;;;;;;12.80;6.05;;;;;;;;;;4978013;28;20023;-83
2022/01/11 00:28:10;;;;;;;13.68;6.00;;;;;;;;;;4960099;29;20046;-84
2022/01/11 00:30:39;;;;;;;13.20;6.47;;;;;;;;;;4962811;29;20019;-84
2022/01/11 00:33:09;;;;;;;11.93;6.18;;;;;;;;;;4962389;29;20019;-84
2022/01/11 00:35:46;;;;;;;12.32;6.70;;;;;;;;;;4978973;29;20035;-83
2022/01/11 00:38:20;;;;;;;13.55;6.20;;;;;;;;;;4960250;29;20014;-83
2022/01/11 00:40:46;;;;;;;11.13;6.35;;;;;;;;;;4978161;29;20067;-84
2022/01/11 00:43:14;;;;;;;13.38;6.85;;;;;;;;;;4980601;28;20019;-84
2022/01/11 00:45:40;;;;;;;14.60;7.18;;;;;;;;;;4963868;29;20011;-84
2022/01/11 00:48:06;;;;;;;13.65;7.22;;;;;;;;;;4964207;28;20023;-83
2022/01/11 00:50:36;;;;;;;14.52;6.93;;;;;;;;;;4963115;29;20120;-84
2022/01/11 00:53:02;;;;;;;15.95;6.85;;;;;;;;;;4979971;28;19999;-84
2022/01/11 00:55:28;;;;;;;14.70;7.38;;;;;;;;;;4979292;28;20055;-84
2022/01/11 00:57:53;;;;;;;14.38;7.35;;;;;;;;;;4960966;29;20102;-84
2022/01/11 01:00:25;;;;;;;12.40;6.82;;;;;;;;;;4978081;29;20083;-84
2022/01/11 01:02:51;;;;;;;18.60;7.50;;;;;;;;;;4962319;29;20027;-84
2022/01/11 01:05:17;;;;;;;17.52;7.32;;;;;;;;;;4980537;28;20030;-84
2022/01/11 01:07:45;;;;;;;15.65;7.70;;;;;;;;;;4980532;29;20027;-85
2022/01/11 01:12:46;;;;;;;17.08;7.47;;;;;;;;;;4979895;29;20302;-84
2022/01/11 01:15:14;;;;;;;16.85;7.45;;;;;;;;;;4962740;28;20047;-84
2022/01/11 01:17:41;;;;;;;16.40;8.25;;;;;;;;;;4976376;29;20007;-83
2022/01/11 01:20:07;;;;;;;19.88;7.45;;;;;;;;;;4979048;29;20031;-83
2022/01/11 01:22:35;;;;;;;16.42;7.93;;;;;;;;;;4956157;29;20033;-83
2022/01/11 01:25:03;;;;;;;17.08;8.25;;;;;;;;;;4956751;29;20027;-82
2022/01/11 01:27:29;;;;;;;19.30;9.07;;;;;;;;;;4979192;28;20055;-84
2022/01/11 01:29:54;;;;;;;19.83;8.23;;;;;;;;;;4961934;29;20023;-83
2022/01/11 01:32:20;;;;;;;19.67;9.02;;;;;;;;;;4960692;29;20023;-84
2022/01/11 01:34:49;;;;;;;20.20;8.60;;;;;;;;;;4975870;28;20047;-83
2022/01/11 01:37:16;;;;;;;;;;;;;;;;;;4974445;29;20038;-83
2022/01/11 01:39:50;;;;;;;20.42;8.38;;;;;;;;;;4960371;29;19953;-84
2022/01/11 01:42:23;;;;;;;18.35;8.02;;;;;;;;;;4977600;29;20026;-84
2022/01/11 01:44:50;;;;;;;22.25;9.57;;;;;;;;;;4977372;28;20023;-83
2022/01/11 01:47:16;;;;;;;18.92;8.77;;;;;;;;;;4959808;29;20015;-83
2022/01/11 01:49:47;;;;;;;20.15;8.35;;;;;;;;;;4959142;29;20025;-83
2022/01/11 01:52:14;;;;;;;20.15;8.85;;;;;;;;;;4958330;29;20023;-83
2022/01/11 01:54:42;;;;;;;21.10;8.77;;;;;;;;;;4961319;29;20020;-83
2022/01/11 01:57:14;;;;;;;22.63;9.68;;;;;;;;;;4976304;29;20030;-82
2022/01/11 01:59:40;;;;;;;22.63;9.73;;;;;;;;;;4961653;28;20035;-84
2022/01/11 02:02:10;;;;;;;22.02;9.45;;;;;;;;;;4962444;28;20034;-84
2022/01/11 02:04:37;;;;;;;22.08;10.05;;;;;;;;;;4976137;28;20062;-85
2022/01/11 02:07:04;;;;;;;20.63;8.63;;;;;;;;;;4959932;29;20011;-84
2022/01/11 02:11:58;;;;;;;19.70;9.32;;;;;;;;;;4995777;28;20051;-84
2022/01/11 02:14:23;;;;;;;19.05;8.90;;;;;;;;;;4971776;28;20011;-83
2022/01/11 02:16:49;;;;;;;22.25;9.75;;;;;;;;;;4959773;29;20024;-84
2022/01/11 02:19:15;;;;;;;24.17;9.20;;;;;;;;;;4976721;29;20038;-84
2022/01/11 02:21:42;;;;;;;23.48;9.75;;;;;;;;;;4959772;29;20035;-84
2022/01/11 02:24:09;;;;;;;20.35;9.00;;;;;;;;;;4960256;29;20019;-83
2022/01/11 02:26:34;;;;;;;22.48;10.57;;;;;;;;;;4956855;29;20019;-81
2022/01/11 02:29:00;;;;;;;21.45;10.50;;;;;;;;;;4971637;28;20544;-84
2022/01/11 02:31:26;;;;;;;21.10;9.27;;;;;;;;;;4959472;29;20034;-83
2022/01/11 02:33:56;;;;;;;23.35;9.85;;;;;;;;;;4977396;28;20042;-83
2022/01/11 02:36:24;;;;;;;24.60;10.20;;;;;;;;;;4961301;29;19999;-84
2022/01/11 02:38:52;;;;;;;27.90;10.43;;;;;;;;;;4959389;29;20019;-84
2022/01/11 02:41:19;;;;;;;23.15;9.95;;;;;;;;;;4960776;28;20062;-84
2022/01/11 02:43:47;;;;;;;23.38;10.68;;;;;;;;;;4960940;28;20049;-84
2022/01/11 02:46:13;;;;;;;23.13;10.65;;;;;;;;;;4960385;28;20058;-84
2022/01/11 02:48:39;;;;;;;24.67;9.90;;;;;;;;;;4963538;28;20026;-84
2022/01/11 02:51:05;;;;;;;24.88;10.63;;;;;;;;;;4963118;28;20047;-84
2022/01/11 02:53:41;;;;;;;27.45;10.60;;;;;;;;;;4959036;29;20011;-84
2022/01/11 02:56:06;;;;;;;24.23;8.98;;;;;;;;;;4959663;29;20027;-84
2022/01/11 02:58:35;;;;;;;23.42;10.13;;;;;;;;;;4977965;28;20090;-86
2022/01/11 03:01:03;;;;;;;24.38;10.50;;;;;;;;;;4974921;29;20034;-85
2022/01/11 03:03:29;;;;;;;21.85;10.23;;;;;;;;;;4961248;28;20091;-84
2022/01/11 03:05:56;;;;;;;27.00;10.32;;;;;;;;;;4978233;29;20055;-84
2022/01/11 03:08:26;;;;;;;23.52;10.05;;;;;;;;;;4976722;28;20023;-84
2022/01/11 03:11:00;;;;;;;26.75;10.95;;;;;;;;;;4978365;28;20042;-84
2022/01/11 03:13:26;;;;;;;29.75;11.52;;;;;;;;;;4975716;28;20015;-84
2022/01/11 03:15:54;;;;;;;31.35;12.40;;;;;;;;;;4959924;29;20022;-84
2022/01/11 03:18:20;;;;;;;29.40;11.20;;;;;;;;;;4962094;29;20026;-83
2022/01/11 03:20:47;;;;;;;26.27;10.48;;;;;;;;;;4961201;28;20079;-84
2022/01/11 03:23:16;;;;;;;26.95;11.63;;;;;;;;;;4964548;28;20031;-84
2022/01/11 03:25:45;;;;;;;36.58;12.65;;;;;;;;;;4966247;28;20036;-84
2022/01/11 03:28:11;;;;;;;29.92;11.40;;;;;;;;;;4982994;29;20008;-84
2022/01/11 03:30:37;;;;;;;34.88;12.32;;;;;;;;;;4963756;29;20091;-84
2022/01/11 03:33:14;;;;;;;41.13;15.88;;;;;;;;;;4981418;28;20038;-84
2022/01/11 03:35:40;;;;;;;39.72;16.00;;;;;;;;;;4964568;28;20103;-84
2022/01/11 03:38:07;;;;;;;47.40;20.10;;;;;;;;;;4974450;29;20483;-83
2022/01/11 03:40:36;;;;;;;52.97;19.23;;;;;;;;;;4956381;29;20050;-83
2022/01/11 03:43:05;;;;;;;52.38;20.00;;;;;;;;;;4972201;29;20488;-83
2022/01/11 03:45:33;;;;;;;58.72;21.48;;;;;;;;;;4975724;28;20020;-84
2022/01/11 03:48:00;;;;;;;60.85;21.23;;;;;;;;;;4979305;28;20047;-85
2022/01/11 03:50:26;;;;;;;65.15;23.58;;;;;;;;;;4964807;28;20027;-85
2022/01/11 03:53:16;;;;;;;66.50;23.08;;;;;;;;;;4966625;28;20011;-85
2022/01/11 03:58:16;;;;;;;55.80;18.60;;;;;;;;;;4983252;28;20011;-84
2022/01/11 04:01:04;;;;;;;56.13;19.52;;;;;;;;;;4983085;28;20010;-83
2022/01/11 04:03:31;;;;;;;56.60;20.50;;;;;;;;;;4982781;28;20026;-84
2022/01/11 04:05:57;;;;;;;64.32;20.80;;;;;;;;;;4982575;28;20019;-83
2022/01/11 04:08:27;;;;;;;62.95;21.40;;;;;;;;;;4982278;28;20027;-84
2022/01/11 04:10:55;;;;;;;60.53;20.85;;;;;;;;;;4959529;29;20042;-84
2022/01/11 04:13:24;;;;;;;55.35;19.10;;;;;;;;;;4957292;28;20080;-83
2022/01/11 04:15:49;;;;;;;55.20;19.77;;;;;;;;;;4976135;29;20062;-83
2022/01/11 04:18:14;;;;;;;60.15;20.42;;;;;;;;;;4975547;29;20023;-84
2022/01/11 04:20:43;;;;;;;53.33;19.50;;;;;;;;;;4959523;29;20020;-83
2022/01/11 04:23:11;;;;;;;56.83;19.30;;;;;;;;;;4955652;28;20049;-83
2022/01/11 04:25:37;;;;;;;63.70;23.42;;;;;;;;;;4956378;29;20416;-84
2022/01/11 04:28:05;;;;;;;69.03;22.35;;;;;;;;;;4962476;29;20023;-83
2022/01/11 04:30:35;;;;;;;74.97;24.00;;;;;;;;;;4964848;28;20062;-84
2022/01/11 04:33:01;;;;;;;80.70;26.33;;;;;;;;;;4981796;28;20003;-84
2022/01/11 04:35:27;;;;;;;78.07;26.42;;;;;;;;;;4980691;28;20107;-84
2022/01/11 04:37:52;;;;;;;90.25;30.23;;;;;;;;;;4960086;29;20105;-83
2022/01/11 04:40:20;;;;;;;87.63;29.92;;;;;;;;;;4958939;29;20023;-83
2022/01/11 04:42:48;;;;;;;78.53;28.45;;;;;;;;;;4973894;29;20015;-82
2022/01/11 04:45:15;;;;;;;80.93;28.00;;;;;;;;;;4976402;28;20123;-83
2022/01/11 04:47:43;;;;;;;78.90;28.38;;;;;;;;;;4979693;29;20034;-84
2022/01/11 04:50:09;;;;;;;76.32;26.65;;;;;;;;;;4973699;29;20074;-83
2022/01/11 04:52:35;;;;;;;77.10;26.55;;;;;;;;;;4972004;29;20031;-83
2022/01/11 04:55:00;;;;;;;77.68;26.88;;;;;;;;;;4972132;28;20023;-83
2022/01/11 04:57:26;;;;;;;83.30;25.27;;;;;;;;;;4972477;29;20087;-83
2022/01/11 04:59:51;;;;;;;76.72;26.05;;;;;;;;;;4973707;29;20027;-83
2022/01/11 05:02:16;;;;;;;76.68;25.33;;;;;;;;;;4971935;29;20027;-83
2022/01/11 05:04:43;;;;;;;75.70;27.00;;;;;;;;;;4977326;28;20051;-83
2022/01/11 05:07:08;;;;;;;71.32;23.83;;;;;;;;;;4960004;29;20026;-82
2022/01/11 05:09:34;;;;;;;65.95;24.20;;;;;;;;;;4972360;28;20015;-83
2022/01/11 05:11:59;;;;;;;73.60;24.17;;;;;;;;;;4975514;28;20031;-84
2022/01/11 05:14:25;;;;;;;67.60;25.95;;;;;;;;;;4981330;28;20026;-84
2022/01/11 05:16:50;;;;;;;63.03;23.65;;;;;;;;;;4962625;29;20063;-83
2022/01/11 05:19:16;;;;;;;64.60;21.25;;;;;;;;;;4959164;29;20037;-83
2022/01/11 05:21:41;;;;;;;68.88;22.30;;;;;;;;;;4976310;28;20062;-82
2022/01/11 05:24:07;;;;;;;61.63;22.65;;;;;;;;;;4974259;28;20031;-82
2022/01/11 05:26:33;;;;;;;62.55;21.08;;;;;;;;;;4976048;29;20023;-83
2022/01/11 05:29:01;;;;;;;60.72;21.55;;;;;;;;;;4960600;29;20031;-84
2022/01/11 05:31:26;;;;;;;64.75;23.70;;;;;;;;;;4962684;28;20019;-84
2022/01/11 05:33:55;;;;;;;74.65;22.60;;;;;;;;;;4961572;29;20027;-84
2022/01/11 05:36:31;;;;;;;71.57;22.88;;;;;;;;;;4963130;28;20055;-84
2022/01/11 05:38:56;;;;;;;67.03;21.80;;;;;;;;;;4979913;28;20032;-83
2022/01/11 05:41:29;;;;;;;66.72;23.13;;;;;;;;;;4977423;28;20019;-83
2022/01/11 05:43:57;;;;;;;72.82;25.45;;;;;;;;;;4975136;29;20047;-84
2022/01/11 05:46:22;;;;;;;69.55;22.33;;;;;;;;;;4960241;29;20030;-84
2022/01/11 05:48:48;;;;;;;71.45;26.45;;;;;;;;;;4947791;29;20020;-82
2022/01/11 05:51:15;;;;;;;81.85;25.08;;;;;;;;;;4950780;29;20102;-83
2022/01/11 05:53:41;;;;;;;73.80;26.17;;;;;;;;;;4965213;28;20400;-83
2022/01/11 05:56:09;;;;;;;77.93;28.33;;;;;;;;;;4944320;29;20031;-84
2022/01/11 05:58:38;;;;;;;83.07;29.17;;;;;;;;;;4946922;29;20030;-84
2022/01/11 06:01:06;;;;;;;;;;;;;;;;;;4963619;28;20027;-84
2022/01/11 06:03:43;;;;;;;84.60;28.00;;;;;;;;;;4949130;29;19918;-84
2022/01/11 06:06:30;;;;;;;92.20;31.15;;;;;;;;;;4957403;29;20019;-86
2022/01/11 06:09:07;;;;;;;97.60;32.30;;;;;;;;;;4958358;28;20014;-85
2022/01/11 06:11:39;;;;;;;98.30;32.95;;;;;;;;;;4979506;28;20069;-86
2022/01/11 06:14:07;;;;;;;117.57;36.47;;;;;;;;;;4963805;28;20011;-85
2022/01/11 06:16:34;;;;;;;101.32;36.00;;;;;;;;;;5014690;23;20034;-83
2022/01/11 06:19:07;;;;;;;103.82;35.92;;;;;;;;;;4955264;29;20031;-83
2022/01/11 06:21:37;;;;;;;111.07;36.60;;;;;;;;;;4978609;28;19999;-84
2022/01/11 06:24:05;;;;;;;101.57;35.53;;;;;;;;;;4970297;29;20012;-84
2022/01/11 06:26:31;;;;;;;110.93;37.53;;;;;;;;;;4943697;29;20027;-85
2022/01/11 06:28:57;;;;;;;109.15;34.92;;;;;;;;;;5029237;23;20047;-84
2022/01/11 06:31:34;;;;;;;99.57;33.53;;;;;;;;;;4978726;28;20029;-84
2022/01/11 06:34:05;;;;;;;104.65;34.55;;;;;;;;;;4986892;28;20016;-84
2022/01/11 06:36:34;;;;;;;98.47;34.45;;;;;;;;;;4976778;29;20079;-84
2022/01/11 06:39:05;;;;;;;93.63;33.40;;;;;;;;;;4977815;28;20099;-84
2022/01/11 06:41:31;;;;;;;102.60;34.83;;;;;;;;;;4960650;28;20027;-83
2022/01/11 06:43:59;;;;;;;90.57;32.10;;;;;;;;;;4958700;29;20039;-84
2022/01/11 06:46:29;;;;;;;99.90;32.00;;;;;;;;;;4977443;28;20055;-84
2022/01/11 06:48:57;;;;;;;95.40;31.05;;;;;;;;;;4979399;28;20007;-84
2022/01/11 06:51:25;;;;;;;97.70;31.47;;;;;;;;;;4979636;28;20035;-84
2022/01/11 06:53:51;;;;;;;85.63;29.98;;;;;;;;;;4961655;28;20120;-86
2022/01/11 06:56:30;;;;;;;81.22;30.13;;;;;;;;;;4978595;28;20046;-84
2022/01/11 06:58:58;;;;;;;122.28;34.30;;;;;;;;;;4979735;28;20047;-85
2022/01/11 07:01:39;;;;;;;85.50;29.87;;;;;;;;;;4979497;28;20012;-84
2022/01/11 07:04:05;;;;;;;83.68;27.02;;;;;;;;;;5076618;23;20304;-84
2022/01/11 07:06:36;;;;;;;83.63;28.08;;;;;;;;;;4977886;28;20019;-84
2022/01/11 07:09:07;;;;;;;78.47;27.00;;;;;;;;;;5053252;23;20063;-84
2022/01/11 07:11:36;;;;;;;72.70;27.77;;;;;;;;;;4958044;23;20035;-86
2022/01/11 07:14:07;;;;;;;77.03;28.27;;;;;;;;;;4960243;28;20020;-85
2022/01/11 07:16:36;;;;;;;82.30;29.48;;;;;;;;;;4943959;29;20051;-84
2022/01/11 07:19:05;;;;;;;88.50;30.58;;;;;;;;;;4974605;23;20035;-85
2022/01/11 07:21:34;;;;;;;83.35;30.17;;;;;;;;;;4943603;28;20035;-86
2022/01/11 07:24:00;;;;;;;81.72;28.15;;;;;;;;;;4943223;28;20024;-85
2022/01/11 07:26:26;;;;;;;82.75;28.50;;;;;;;;;;4943698;29;20047;-85
2022/01/11 07:28:56;;;;;;;81.28;30.20;;;;;;;;;;4971758;23;20036;-86
2022/01/11 07:31:31;;;;;;;76.85;26.40;;;;;;;;;;4964877;23;20032;-86
2022/01/11 07:33:58;;;;;;;81.20;29.08;;;;;;;;;;5046940;23;20044;-85
2022/01/11 07:36:42;;;;;;;77.47;28.73;;;;;;;;;;5147650;23;20076;-83
2022/01/11 07:39:09;;;;;;;80.88;28.55;;;;;;;;;;4940297;29;20066;-84
2022/01/11 07:41:35;;;;;;;81.88;28.48;;;;;;;;;;4941277;29;20008;-85
2022/01/11 07:46:36;;;;;;;72.45;28.42;;;;;;;;;;4958278;29;19923;-85
2022/01/11 07:49:06;;;;;;;81.45;28.42;;;;;;;;;;4959048;23;20044;-84
2022/01/11 07:52:07;;;;;;;80.93;28.80;;;;;;;;;;4958224;23;20064;-83
2022/01/11 07:54:40;;;;;;;67.45;25.70;;;;;;;;;;4977764;23;20032;-86
2022/01/11 07:57:11;;;;;;;76.90;29.45;;;;;;;;;;4956618;23;20020;-85
2022/01/11 07:59:41;;;;;;;77.00;29.67;;;;;;;;;;4987275;23;20051;-85
2022/01/11 08:02:18;;;;;;;78.43;28.50;;;;;;;;;;4980062;28;20003;-85
2022/01/11 08:04:52;;;;;;;76.07;28.77;;;;;;;;;;4969362;28;20016;-85
2022/01/11 08:07:19;;;;;;;79.85;28.25;;;;;;;;;;4962079;29;20046;-85
2022/01/11 08:09:50;;;;;;;77.60;28.85;;;;;;;;;;4983816;23;20027;-84
2022/01/11 08:14:48;;;;;;;76.75;28.15;;;;;;;;;;4985363;28;20047;-85
2022/01/11 08:17:31;;;;;;;;;;;;;;;;;;;;;
2022/01/11 08:19:57;;;;;;;84.38;32.53;;;;;;;;;;5162255;23;20082;-85
2022/01/11 08:22:40;;;;;;;78.60;30.08;;;;;;;;;;5002287;23;20052;-86
2022/01/11 08:25:08;;;;;;;77.20;28.83;;;;;;;;;;4945906;29;20012;-83
2022/01/11 08:27:34;;;;;;;77.75;28.17;;;;;;;;;;4994651;23;20076;-84
2022/01/11 08:30:01;;;;;;;76.43;28.45;;;;;;;;;;4945766;29;20055;-86
2022/01/11 08:32:26;;;;;;;78.82;29.58;;;;;;;;;;4959298;29;20019;-86
2022/01/11 08:34:56;;;;;;;75.05;28.73;;;;;;;;;;4941738;29;20034;-86
2022/01/11 08:40:00;;;;;;;77.10;28.80;;;;;;;;;;5048215;23;20055;-86
2022/01/11 08:42:29;;;;;;;72.50;28.00;;;;;;;;;;5051472;23;20015;-84
2022/01/11 08:44:55;;;;;;;84.18;34.85;;;;;;;;;;5048145;23;20108;-85
2022/01/11 08:47:30;;;;;;;75.40;29.83;;;;;;;;;;4967933;23;20106;-86
2022/01/11 08:50:05;;;;;;;75.40;27.65;;;;;;;;;;4988247;23;20076;-86
2022/01/11 08:52:41;;;;;;;72.63;26.77;;;;;;;;;;5155698;23;20034;-86
2022/01/11 08:55:09;;;;;;;73.25;27.58;;;;;;;;;;4964647;29;20026;-85
2022/01/11 09:02:38;;;;;;;71.18;27.52;;;;;;;;;;4960388;29;19911;-87
2022/01/11 09:07:49;;;;;;;71.40;27.58;;;;;;;;;;5053116;23;20043;-86
2022/01/11 09:10:22;;;;;;;72.18;28.45;;;;;;;;;;4959855;23;20036;-85
2022/01/11 09:12:56;;;;;;;74.47;29.02;;;;;;;;;;4944437;29;20016;-86
2022/01/11 09:15:32;;;;;;;66.20;26.55;;;;;;;;;;4961147;29;20039;-85
2022/01/11 09:17:58;;;;;;;73.30;28.55;;;;;;;;;;4959709;29;20028;-85
2022/01/11 09:20:28;;;;;;;74.03;28.55;;;;;;;;;;4960992;28;20023;-85
2022/01/11 09:22:57;;;;;;;75.95;30.50;;;;;;;;;;4945033;29;20026;-86
2022/01/11 09:25:26;;;;;;;79.72;28.90;;;;;;;;;;4944435;29;20016;-85
2022/01/11 09:27:54;;;;;;;68.80;27.42;;;;;;;;;;4943023;29;20023;-83
2022/01/11 09:30:20;;;;;;;76.78;27.52;;;;;;;;;;4960636;28;20008;-84
2022/01/11 09:32:46;;;;;;;65.22;26.13;;;;;;;;;;4961643;28;20024;-84
2022/01/11 09:35:13;;;;;;;79.00;27.92;;;;;;;;;;4961214;28;20024;-84
2022/01/11 09:37:40;;;;;;;68.35;25.23;;;;;;;;;;4959683;29;20000;-83
2022/01/11 09:40:08;;;;;;;70.88;27.05;;;;;;;;;;4942182;29;20024;-84
2022/01/11 09:42:40;;;;;;;72.22;27.95;;;;;;;;;;4941837;29;20031;-83
2022/01/11 09:45:17;;;;;;;75.13;27.30;;;;;;;;;;4943753;29;20107;-84
2022/01/11 09:50:20;;;;;;;73.05;27.33;;;;;;;;;;4958419;29;20273;-84
2022/01/11 09:52:50;;;;;;;72.80;27.88;;;;;;;;;;4959808;29;20016;-84
2022/01/11 09:55:18;;;;;;;64.50;26.58;;;;;;;;;;4959260;29;20028;-84
2022/01/11 09:57:44;;;;;;;71.32;26.65;;;;;;;;;;4960562;29;20028;-82
2022/01/11 10:00:11;;;;;;;65.75;25.95;;;;;;;;;;4958799;29;20470;-84
2022/01/11 10:02:50;;;;;;;59.72;24.52;;;;;;;;;;4959300;29;20027;-85
2022/01/11 10:05:18;;;;;;;;;;;;;;;;;;4977324;23;20075;-86
2022/01/11 10:10:17;;;;;;;63.38;23.52;;;;;;;;;;4959249;29;20056;-84
2022/01/11 10:15:30;;;;;;;65.10;25.52;;;;;;;;;;5011581;23;20055;-85
2022/01/11 10:22:53;;;;;;;69.85;26.88;;;;;;;;;;5068600;23;20107;-84
2022/01/11 10:25:26;;;;;;;69.97;25.38;;;;;;;;;;4942928;28;20051;-88
2022/01/11 10:27:58;;;;;;;65.53;26.63;;;;;;;;;;4970016;23;20051;-87
2022/01/11 10:30:30;;;;;;;73.97;28.55;;;;;;;;;;5053683;23;20031;-86
2022/01/11 10:33:00;;;;;;;70.32;28.23;;;;;;;;;;4971246;23;20051;-87
2022/01/11 10:38:05;;;;;;;70.95;28.40;;;;;;;;;;5024327;23;20032;-83
2022/01/11 10:40:38;;;;;;;74.13;27.58;;;;;;;;;;4938880;29;20008;-85
2022/01/11 10:43:10;;;;;;;71.07;27.92;;;;;;;;;;5086351;23;20900;-85
2022/01/11 10:45:37;;;;;;;76.80;29.25;;;;;;;;;;5005343;23;20057;-84
2022/01/11 10:48:06;;;;;;;77.35;30.17;;;;;;;;;;4978170;28;20034;-86
2022/01/11 10:50:37;;;;;;;84.85;30.60;;;;;;;;;;4979025;28;20015;-84
2022/01/11 10:53:17;;;;;;;83.75;31.02;;;;;;;;;;4979048;28;20020;-84
2022/01/11 10:55:50;;;;;;;71.75;27.45;;;;;;;;;;4959510;29;20046;-83
2022/01/11 10:58:15;;;;;;;70.88;27.90;;;;;;;;;;4959966;29;20027;-85
2022/01/11 11:00:47;;;;;;;72.47;26.67;;;;;;;;;;4960619;29;20008;-85
2022/01/11 11:03:41;;;;;;;73.10;27.85;;;;;;;;;;4959750;29;20019;-85
2022/01/11 11:06:11;;;;;;;71.07;29.35;;;;;;;;;;4962810;29;20072;-85
2022/01/11 11:08:44;;;;;;;77.97;30.48;;;;;;;;;;4958905;29;20027;-84
2022/01/11 11:14:06;;;;;;;80.50;29.02;;;;;;;;;;4959244;29;20047;-85
2022/01/11 11:16:40;;;;;;;73.07;29.65;;;;;;;;;;4958200;29;20024;-84
2022/01/11 11:19:09;;;;;;;80.35;30.23;;;;;;;;;;4959048;29;20027;-84
2022/01/11 11:21:40;;;;;;;78.03;30.00;;;;;;;;;;4958268;29;20011;-85
2022/01/11 11:24:08;;;;;;;78.43;29.42;;;;;;;;;;4957718;29;20031;-85
2022/01/11 11:26:39;;;;;;;71.15;29.00;;;;;;;;;;4959318;29;20020;-84
2022/01/11 11:29:11;;;;;;;83.50;29.58;;;;;;;;;;4959207;29;20027;-84
2022/01/11 11:31:39;;;;;;;71.35;26.50;;;;;;;;;;4959808;29;20035;-84
2022/01/11 11:34:09;;;;;;;71.70;26.88;;;;;;;;;;4960573;23;20139;-85
2022/01/11 11:36:38;;;;;;;81.97;28.25;;;;;;;;;;4961142;28;20048;-85
2022/01/11 11:39:11;;;;;;;75.30;27.65;;;;;;;;;;4962382;29;19996;-85
2022/01/11 11:41:42;;;;;;;81.63;28.25;;;;;;;;;;4963802;28;20102;-86
2022/01/11 11:44:12;;;;;;;69.40;27.85;;;;;;;;;;4946797;28;20040;-84
2022/01/11 11:47:01;;;;;;;;;;;;;;;;;;;;;
2022/01/11 11:52:18;;;;;;;64.85;24.70;;;;;;;;;;4959966;29;20028;-85
2022/01/11 11:54:50;;;;;;;63.13;24.85;;;;;;;;;;4947105;28;20032;-85
2022/01/11 11:57:18;;;;;;;74.00;26.30;;;;;;;;;;4962879;28;20015;-82
2022/01/11 11:59:56;;;;;;;52.28;20.23;;;;;;;;;;5216738;23;20099;-84
2022/01/11 12:02:35;;;;;;;71.87;26.20;;;;;;;;;;4963122;28;20035;-84
2022/01/11 12:05:07;;;;;;;61.17;24.98;;;;;;;;;;4946539;28;20016;-85
2022/01/11 12:07:43;;;;;;;69.35;25.60;;;;;;;;;;4946508;28;20004;-85
2022/01/11 12:10:52;;;;;;;68.85;25.65;;;;;;;;;;5002661;23;20044;-83
2022/01/11 12:13:17;;;;;;;;;;;;;;;;;;4947186;29;20031;-82
2022/01/11 12:20:58;;;;;;;68.47;26.40;;;;;;;;;;5025762;23;19910;-85
2022/01/11 12:23:37;;;;;;;65.75;25.17;;;;;;;;;;5064146;23;20110;-86
2022/01/11 12:26:16;;;;;;;60.47;23.35;;;;;;;;;;5004257;23;20042;-83
2022/01/11 12:29:07;;;;;;;62.25;24.17;;;;;;;;;;4962665;28;20026;-83
2022/01/11 12:31:39;;;;;;;62.47;23.05;;;;;;;;;;4945723;29;20027;-82
2022/01/11 12:34:13;;;;;;;60.67;23.05;;;;;;;;;;4945524;29;20024;-83
2022/01/11 12:36:53;;;;;;;64.82;24.92;;;;;;;;;;4943509;29;20051;-81
2022/01/11 12:39:26;;;;;;;59.40;23.48;;;;;;;;;;4945131;28;20018;-83
2022/01/11 12:41:59;;;;;;;59.65;21.95;;;;;;;;;;4942617;29;20017;-85
2022/01/11 12:47:05;;;;;;;67.45;25.95;;;;;;;;;;4923913;29;20036;-84
2022/01/11 12:49:39;;;;;;;71.40;25.67;;;;;;;;;;5143912;23;20045;-85
2022/01/11 12:52:16;;;;;;;67.63;25.40;;;;;;;;;;4973293;23;20051;-84
2022/01/11 12:57:27;;;;;;;70.03;26.92;;;;;;;;;;5112443;23;20258;-84
2022/01/11 12:59:57;;;;;;;73.85;27.98;;;;;;;;;;4984020;28;20007;-84
2022/01/11 13:02:25;;;;;;;73.32;26.73;;;;;;;;;;4959378;23;20088;-83
2022/01/11 13:05:04;;;;;;;;;;;;;;;;;;;;;
2022/01/11 13:07:25;;;;;;;77.78;27.02;;;;;;;;;;4977997;28;20034;-86
2022/01/11 13:09:51;;;;;;;;;;;;;;;;;;4959242;23;20048;-84
2022/01/11 13:12:34;;;;;;;72.88;26.35;;;;;;;;;;4997011;23;19953;-86
2022/01/11 13:15:23;;;;;;;73.47;26.27;;;;;;;;;;4944351;29;20050;-84
2022/01/11 13:17:53;;;;;;;76.70;26.95;;;;;;;;;;4960095;28;20015;-84
2022/01/11 13:20:23;;;;;;;77.82;28.70;;;;;;;;;;4944173;29;20023;-82
2022/01/11 13:25:51;;;;;;;68.53;24.63;;;;;;;;;;4959727;28;20011;-83
2022/01/11 13:28:19;;;;;;;70.68;25.15;;;;;;;;;;4941393;29;20075;-83
2022/01/11 13:30:55;;;;;;;59.53;25.02;;;;;;;;;;4942261;29;20004;-83
2022/01/11 13:33:32;;;;;;;62.90;22.75;;;;;;;;;;4941423;29;20099;-83
2022/01/11 13:36:17;;;;;;;57.58;18.48;;;;;;;;;;4960103;28;20077;-83
2022/01/11 13:39:00;;;;;;;57.85;19.33;;;;;;;;;;4941775;29;20079;-84
2022/01/11 13:41:30;;;;;;;53.75;20.25;;;;;;;;;;4960484;28;20027;-83
2022/01/11 13:44:00;;;;;;;52.72;19.42;;;;;;;;;;4943081;29;20034;-84
2022/01/11 13:46:28;;;;;;;53.67;19.60;;;;;;;;;;4943910;29;20035;-84
2022/01/11 13:49:02;;;;;;;62.85;20.88;;;;;;;;;;4959701;28;20007;-84
2022/01/11 13:51:29;;;;;;;54.60;19.33;;;;;;;;;;4943432;29;20109;-83
2022/01/11 13:54:07;;;;;;;59.03;21.05;;;;;;;;;;4943607;29;20075;-84
2022/01/11 13:56:39;;;;;;;54.22;20.90;;;;;;;;;;4943146;29;20019;-84
2022/01/11 13:59:06;;;;;;;88.78;34.22;;;;;;;;;;4941866;29;20023;-84
2022/01/11 14:01:37;;;;;;;67.50;23.95;;;;;;;;;;4957918;29;20030;-84
2022/01/11 14:04:14;;;;;;;60.17;20.98;;;;;;;;;;4960563;28;20003;-84
2022/01/11 14:06:44;;;;;;;60.75;21.13;;;;;;;;;;4960513;28;20051;-84
2022/01/11 14:09:16;;;;;;;67.97;23.00;;;;;;;;;;4942992;29;20091;-85
2022/01/11 14:11:51;;;;;;;72.20;23.15;;;;;;;;;;4942665;29;20011;-85
2022/01/11 14:14:21;;;;;;;65.30;23.17;;;;;;;;;;4939511;29;20023;-84
2022/01/11 14:17:02;;;;;;;;;;;;;;;;;;;;;
2022/01/11 14:19:44;;;;;;;53.35;21.05;;;;;;;;;;4955727;29;20051;-84
2022/01/11 14:22:13;;;;;;;63.13;23.05;;;;;;;;;;4940894;29;20501;-82
2022/01/11 14:24:53;;;;;;;66.43;22.25;;;;;;;;;;4918492;29;20083;-79
2022/01/11 14:27:19;;;;;;;67.78;23.10;;;;;;;;;;4918470;29;20019;-81
2022/01/11 14:29:56;;;;;;;57.90;21.85;;;;;;;;;;4937332;29;20028;-81
2022/01/11 14:32:21;;;;;;;65.70;24.35;;;;;;;;;;4920265;29;20028;-81
2022/01/11 14:34:58;;;;;;;63.47;23.63;;;;;;;;;;4939629;29;20028;-81
2022/01/11 14:37:25;;;;;;;61.25;22.67;;;;;;;;;;4936183;29;20042;-81
2022/01/11 14:39:51;;;;;;;71.40;22.90;;;;;;;;;;4937907;29;20071;-82
2022/01/11 14:42:24;;;;;;;66.50;21.70;;;;;;;;;;4939260;29;20065;-82
2022/01/11 14:45:09;;;;;;;65.00;22.88;;;;;;;;;;4924728;29;20075;-82
2022/01/11 14:47:57;;;;;;;62.70;22.38;;;;;;;;;;4922805;29;20042;-82
2022/01/11 14:50:24;;;;;;;60.45;23.00;;;;;;;;;;4922916;29;20024;-82
2022/01/11 14:52:57;;;;;;;61.75;22.08;;;;;;;;;;4940639;29;20031;-80
2022/01/11 14:55:36;;;;;;;55.70;20.40;;;;;;;;;;4920980;29;20024;-81
2022/01/11 14:58:10;;;;;;;58.17;20.38;;;;;;;;;;4938088;29;20048;-79
2022/01/11 15:00:39;;;;;;;53.42;19.90;;;;;;;;;;4920389;29;20110;-82
2022/01/11 15:03:04;;;;;;;55.35;20.08;;;;;;;;;;4921116;29;20028;-80
2022/01/11 15:05:30;;;;;;;55.85;20.67;;;;;;;;;;4934074;29;20055;-79
2022/01/11 15:07:58;;;;;;;54.58;20.50;;;;;;;;;;4940691;29;20037;-81
2022/01/11 15:10:50;;;;;;;51.85;20.48;;;;;;;;;;4943131;29;20102;-82
2022/01/11 15:13:18;;;;;;;57.70;21.60;;;;;;;;;;4926282;29;20036;-82
2022/01/11 15:15:43;;;;;;;60.13;18.83;;;;;;;;;;4946207;29;20027;-82
2022/01/11 15:18:08;;;;;;;61.60;21.27;;;;;;;;;;4930355;29;20055;-82
2022/01/11 15:20:33;;;;;;;58.22;21.27;;;;;;;;;;4948731;29;20020;-82
2022/01/11 15:22:59;;;;;;;60.95;22.05;;;;;;;;;;4931366;29;20060;-82
2022/01/11 15:25:27;;;;;;;59.10;20.45;;;;;;;;;;4947764;29;20026;-82
2022/01/11 15:27:57;;;;;;;65.32;22.00;;;;;;;;;;4933004;29;20032;-81
2022/01/11 15:30:25;;;;;;;63.45;21.60;;;;;;;;;;4929759;29;20020;-82
2022/01/11 15:32:51;;;;;;;66.63;21.58;;;;;;;;;;4919222;29;20063;-82
2022/01/11 15:35:22;;;;;;;71.28;23.25;;;;;;;;;;4935943;29;20029;-83
2022/01/11 15:37:51;;;;;;;72.00;23.77;;;;;;;;;;4933760;29;20051;-83
2022/01/11 15:40:19;;;;;;;64.30;23.70;;;;;;;;;;4937148;29;20049;-81